sensor_id;sensor_type;location;lat;lon;timestamp;P1;durP1;ratioP1;P2;durP2;ratioP2
10335;SDS011;5213;53.548;9.930;2022-11-18T00:00:54;15.00;;;10.80;;
10335;SDS011;5213;53.548;9.930;2022-11-18T00:03:20;14.23;;;11.07;;
10335;SDS011;5213;53.548;9.930;2022-11-18T00:05:55;13.52;;;10.07;;
10335;SDS011;5213;53.548;9.930;2022-11-18T00:08:22;13.80;;;10.52;;
10335;SDS011;5213;53.548;9.930;2022-11-18T00:10:48;14.10;;;10.85;;
10335;SDS011;5213;53.548;9.930;2022-11-18T00:13:14;15.68;;;10.48;;
10335;SDS011;5213;53.548;9.930;2022-11-18T00:16:09;13.15;;;9.93;;
10335;SDS011;5213;53.548;9.930;2022-11-18T00:18:35;15.25;;;10.57;;
10335;SDS011;5213;53.548;9.930;2022-11-18T00:21:06;15.07;;;10.77;;
10335;SDS011;5213;53.548;9.930;2022-11-18T00:23:32;16.88;;;11.50;;
10335;SDS011;5213;53.548;9.930;2022-11-18T00:26:02;14.70;;;10.63;;
10335;SDS011;5213;53.548;9.930;2022-11-18T00:28:29;15.77;;;11.23;;
10335;SDS011;5213;53.548;9.930;2022-11-18T00:31:02;15.27;;;10.98;;
10335;SDS011;5213;53.548;9.930;2022-11-18T00:33:28;15.68;;;11.45;;
10335;SDS011;5213;53.548;9.930;2022-11-18T00:35:54;14.35;;;10.73;;
10335;SDS011;5213;53.548;9.930;2022-11-18T00:38:20;15.20;;;11.32;;
10335;SDS011;5213;53.548;9.930;2022-11-18T00:40:46;15.43;;;11.13;;
10335;SDS011;5213;53.548;9.930;2022-11-18T00:43:18;15.15;;;11.15;;
10335;SDS011;5213;53.548;9.930;2022-11-18T00:45:44;14.88;;;10.85;;
10335;SDS011;5213;53.548;9.930;2022-11-18T00:48:10;16.27;;;11.43;;
10335;SDS011;5213;53.548;9.930;2022-11-18T00:50:36;14.75;;;11.23;;
10335;SDS011;5213;53.548;9.930;2022-11-18T00:53:02;16.75;;;11.60;;
10335;SDS011;5213;53.548;9.930;2022-11-18T00:55:28;15.23;;;11.07;;
10335;SDS011;5213;53.548;9.930;2022-11-18T00:57:54;15.45;;;11.32;;
10335;SDS011;5213;53.548;9.930;2022-11-18T01:00:20;16.83;;;12.07;;
10335;SDS011;5213;53.548;9.930;2022-11-18T01:02:46;15.38;;;11.15;;
10335;SDS011;5213;53.548;9.930;2022-11-18T01:05:12;14.15;;;10.27;;
10335;SDS011;5213;53.548;9.930;2022-11-18T01:07:38;16.08;;;11.07;;
10335;SDS011;5213;53.548;9.930;2022-11-18T01:10:04;17.35;;;11.98;;
10335;SDS011;5213;53.548;9.930;2022-11-18T01:12:30;16.65;;;11.55;;
10335;SDS011;5213;53.548;9.930;2022-11-18T01:15:14;16.02;;;11.45;;
10335;SDS011;5213;53.548;9.930;2022-11-18T01:17:40;17.88;;;12.07;;
10335;SDS011;5213;53.548;9.930;2022-11-18T01:20:06;17.25;;;11.45;;
10335;SDS011;5213;53.548;9.930;2022-11-18T01:22:32;15.85;;;11.68;;
10335;SDS011;5213;53.548;9.930;2022-11-18T01:24:58;17.08;;;12.00;;
10335;SDS011;5213;53.548;9.930;2022-11-18T01:27:24;16.50;;;11.65;;
10335;SDS011;5213;53.548;9.930;2022-11-18T01:29:50;16.70;;;11.68;;
10335;SDS011;5213;53.548;9.930;2022-11-18T01:32:16;17.67;;;12.38;;
10335;SDS011;5213;53.548;9.930;2022-11-18T01:34:42;17.45;;;12.40;;
10335;SDS011;5213;53.548;9.930;2022-11-18T01:37:08;19.08;;;13.13;;
10335;SDS011;5213;53.548;9.930;2022-11-18T01:39:34;17.50;;;11.82;;
10335;SDS011;5213;53.548;9.930;2022-11-18T01:42:00;16.80;;;11.77;;
10335;SDS011;5213;53.548;9.930;2022-11-18T01:47:11;17.10;;;11.27;;
10335;SDS011;5213;53.548;9.930;2022-11-18T01:49:37;17.25;;;12.43;;
10335;SDS011;5213;53.548;9.930;2022-11-18T01:52:03;15.40;;;11.68;;
10335;SDS011;5213;53.548;9.930;2022-11-18T01:54:31;18.02;;;12.57;;
10335;SDS011;5213;53.548;9.930;2022-11-18T01:56:59;17.55;;;12.50;;
10335;SDS011;5213;53.548;9.930;2022-11-18T01:59:28;18.15;;;12.52;;
10335;SDS011;5213;53.548;9.930;2022-11-18T02:01:55;22.00;;;12.77;;
10335;SDS011;5213;53.548;9.930;2022-11-18T02:04:22;19.40;;;12.63;;
10335;SDS011;5213;53.548;9.930;2022-11-18T02:06:49;17.95;;;12.18;;
10335;SDS011;5213;53.548;9.930;2022-11-18T02:09:16;19.30;;;13.10;;
10335;SDS011;5213;53.548;9.930;2022-11-18T02:11:43;17.90;;;12.80;;
10335;SDS011;5213;53.548;9.930;2022-11-18T02:14:15;19.10;;;13.10;;
10335;SDS011;5213;53.548;9.930;2022-11-18T02:19:14;20.38;;;13.98;;
10335;SDS011;5213;53.548;9.930;2022-11-18T02:21:55;19.75;;;13.93;;
10335;SDS011;5213;53.548;9.930;2022-11-18T02:27:12;19.00;;;13.40;;
10335;SDS011;5213;53.548;9.930;2022-11-18T02:32:51;19.65;;;14.38;;
10335;SDS011;5213;53.548;9.930;2022-11-18T02:35:29;20.63;;;14.95;;
10335;SDS011;5213;53.548;9.930;2022-11-18T02:37:57;21.95;;;15.43;;
10335;SDS011;5213;53.548;9.930;2022-11-18T02:40:27;20.23;;;14.18;;
10335;SDS011;5213;53.548;9.930;2022-11-18T02:42:55;22.30;;;15.48;;
10335;SDS011;5213;53.548;9.930;2022-11-18T02:45:23;21.50;;;15.32;;
10335;SDS011;5213;53.548;9.930;2022-11-18T02:47:49;20.67;;;14.70;;
10335;SDS011;5213;53.548;9.930;2022-11-18T02:50:18;20.25;;;14.60;;
10335;SDS011;5213;53.548;9.930;2022-11-18T02:52:45;20.80;;;15.65;;
10335;SDS011;5213;53.548;9.930;2022-11-18T02:55:12;19.63;;;14.88;;
10335;SDS011;5213;53.548;9.930;2022-11-18T02:57:39;21.17;;;15.18;;
10335;SDS011;5213;53.548;9.930;2022-11-18T03:00:07;20.60;;;15.13;;
10335;SDS011;5213;53.548;9.930;2022-11-18T03:02:40;21.23;;;15.63;;
10335;SDS011;5213;53.548;9.930;2022-11-18T03:05:07;18.35;;;14.05;;
10335;SDS011;5213;53.548;9.930;2022-11-18T03:07:35;21.60;;;14.65;;
10335;SDS011;5213;53.548;9.930;2022-11-18T03:10:02;19.92;;;14.23;;
10335;SDS011;5213;53.548;9.930;2022-11-18T03:17:58;20.00;;;14.80;;
10335;SDS011;5213;53.548;9.930;2022-11-18T03:20:27;21.27;;;14.70;;
10335;SDS011;5213;53.548;9.930;2022-11-18T03:22:55;22.15;;;14.75;;
10335;SDS011;5213;53.548;9.930;2022-11-18T03:25:28;18.60;;;13.63;;
10335;SDS011;5213;53.548;9.930;2022-11-18T03:27:59;19.08;;;14.38;;
10335;SDS011;5213;53.548;9.930;2022-11-18T03:30:27;20.35;;;14.55;;
10335;SDS011;5213;53.548;9.930;2022-11-18T03:32:57;20.38;;;14.75;;
10335;SDS011;5213;53.548;9.930;2022-11-18T03:35:25;21.40;;;14.95;;
10335;SDS011;5213;53.548;9.930;2022-11-18T03:37:53;20.17;;;15.07;;
10335;SDS011;5213;53.548;9.930;2022-11-18T03:40:21;20.45;;;13.73;;
10335;SDS011;5213;53.548;9.930;2022-11-18T03:42:49;19.17;;;13.63;;
10335;SDS011;5213;53.548;9.930;2022-11-18T03:45:18;19.92;;;14.23;;
10335;SDS011;5213;53.548;9.930;2022-11-18T03:47:46;18.50;;;13.55;;
10335;SDS011;5213;53.548;9.930;2022-11-18T03:52:43;17.63;;;12.73;;
10335;SDS011;5213;53.548;9.930;2022-11-18T03:55:15;17.63;;;13.93;;
10335;SDS011;5213;53.548;9.930;2022-11-18T04:00:23;17.58;;;12.73;;
10335;SDS011;5213;53.548;9.930;2022-11-18T04:02:51;17.58;;;12.50;;
10335;SDS011;5213;53.548;9.930;2022-11-18T04:05:17;17.15;;;12.90;;
10335;SDS011;5213;53.548;9.930;2022-11-18T04:07:49;18.88;;;12.80;;
10335;SDS011;5213;53.548;9.930;2022-11-18T04:10:19;17.55;;;12.80;;
10335;SDS011;5213;53.548;9.930;2022-11-18T04:12:49;17.45;;;12.70;;
10335;SDS011;5213;53.548;9.930;2022-11-18T04:15:17;15.50;;;12.27;;
10335;SDS011;5213;53.548;9.930;2022-11-18T04:17:43;17.75;;;12.57;;
10335;SDS011;5213;53.548;9.930;2022-11-18T04:20:13;16.33;;;12.30;;
10335;SDS011;5213;53.548;9.930;2022-11-18T04:22:40;16.65;;;12.75;;
10335;SDS011;5213;53.548;9.930;2022-11-18T04:25:06;16.25;;;12.98;;
10335;SDS011;5213;53.548;9.930;2022-11-18T04:27:32;17.90;;;13.13;;
10335;SDS011;5213;53.548;9.930;2022-11-18T04:29:58;18.30;;;12.85;;
10335;SDS011;5213;53.548;9.930;2022-11-18T04:32:24;16.65;;;11.98;;
10335;SDS011;5213;53.548;9.930;2022-11-18T04:34:50;16.85;;;12.57;;
10335;SDS011;5213;53.548;9.930;2022-11-18T04:37:16;17.23;;;12.80;;
10335;SDS011;5213;53.548;9.930;2022-11-18T04:39:42;18.50;;;13.13;;
10335;SDS011;5213;53.548;9.930;2022-11-18T04:42:08;18.02;;;13.30;;
10335;SDS011;5213;53.548;9.930;2022-11-18T04:44:34;16.33;;;12.80;;
10335;SDS011;5213;53.548;9.930;2022-11-18T04:47:01;16.67;;;12.85;;
10335;SDS011;5213;53.548;9.930;2022-11-18T04:49:27;17.30;;;12.90;;
10335;SDS011;5213;53.548;9.930;2022-11-18T04:51:54;16.15;;;12.75;;
10335;SDS011;5213;53.548;9.930;2022-11-18T04:54:20;16.23;;;12.93;;
10335;SDS011;5213;53.548;9.930;2022-11-18T04:56:47;16.73;;;12.70;;
10335;SDS011;5213;53.548;9.930;2022-11-18T04:59:13;16.92;;;13.25;;
10335;SDS011;5213;53.548;9.930;2022-11-18T05:01:40;17.42;;;13.60;;
10335;SDS011;5213;53.548;9.930;2022-11-18T05:04:06;18.23;;;13.38;;
10335;SDS011;5213;53.548;9.930;2022-11-18T05:06:32;18.25;;;13.93;;
10335;SDS011;5213;53.548;9.930;2022-11-18T05:08:59;18.38;;;14.32;;
10335;SDS011;5213;53.548;9.930;2022-11-18T05:11:25;16.85;;;13.13;;
10335;SDS011;5213;53.548;9.930;2022-11-18T05:14:11;18.10;;;13.75;;
10335;SDS011;5213;53.548;9.930;2022-11-18T05:16:37;18.50;;;14.43;;
10335;SDS011;5213;53.548;9.930;2022-11-18T05:19:03;20.02;;;13.25;;
10335;SDS011;5213;53.548;9.930;2022-11-18T05:21:30;17.70;;;13.25;;
10335;SDS011;5213;53.548;9.930;2022-11-18T05:23:57;17.50;;;14.38;;
10335;SDS011;5213;53.548;9.930;2022-11-18T05:26:23;20.00;;;14.57;;
10335;SDS011;5213;53.548;9.930;2022-11-18T05:28:50;20.15;;;14.75;;
10335;SDS011;5213;53.548;9.930;2022-11-18T05:31:16;19.15;;;14.23;;
10335;SDS011;5213;53.548;9.930;2022-11-18T05:33:42;19.17;;;14.68;;
10335;SDS011;5213;53.548;9.930;2022-11-18T05:36:09;19.48;;;14.25;;
10335;SDS011;5213;53.548;9.930;2022-11-18T05:38:36;19.10;;;14.40;;
10335;SDS011;5213;53.548;9.930;2022-11-18T05:41:02;20.10;;;15.27;;
10335;SDS011;5213;53.548;9.930;2022-11-18T05:43:29;18.55;;;13.68;;
10335;SDS011;5213;53.548;9.930;2022-11-18T05:45:55;19.58;;;14.65;;
10335;SDS011;5213;53.548;9.930;2022-11-18T05:48:21;19.50;;;14.80;;
10335;SDS011;5213;53.548;9.930;2022-11-18T05:50:48;20.48;;;16.05;;
10335;SDS011;5213;53.548;9.930;2022-11-18T05:53:15;21.80;;;15.60;;
10335;SDS011;5213;53.548;9.930;2022-11-18T05:58:10;20.63;;;15.27;;
10335;SDS011;5213;53.548;9.930;2022-11-18T06:00:36;22.08;;;15.13;;
10335;SDS011;5213;53.548;9.930;2022-11-18T06:03:03;22.02;;;16.38;;
10335;SDS011;5213;53.548;9.930;2022-11-18T06:05:33;21.95;;;15.27;;
10335;SDS011;5213;53.548;9.930;2022-11-18T06:07:59;22.23;;;16.33;;
10335;SDS011;5213;53.548;9.930;2022-11-18T06:10:29;23.02;;;15.50;;
10335;SDS011;5213;53.548;9.930;2022-11-18T06:12:57;20.33;;;15.20;;
10335;SDS011;5213;53.548;9.930;2022-11-18T06:15:26;22.00;;;15.38;;
10335;SDS011;5213;53.548;9.930;2022-11-18T06:17:55;21.45;;;16.08;;
10335;SDS011;5213;53.548;9.930;2022-11-18T06:20:22;21.20;;;16.08;;
10335;SDS011;5213;53.548;9.930;2022-11-18T06:22:50;19.60;;;15.10;;
10335;SDS011;5213;53.548;9.930;2022-11-18T06:25:18;21.77;;;16.42;;
10335;SDS011;5213;53.548;9.930;2022-11-18T06:27:44;23.23;;;16.42;;
10335;SDS011;5213;53.548;9.930;2022-11-18T06:30:11;21.65;;;16.20;;
10335;SDS011;5213;53.548;9.930;2022-11-18T06:32:37;22.73;;;16.05;;
10335;SDS011;5213;53.548;9.930;2022-11-18T06:35:03;20.65;;;15.20;;
10335;SDS011;5213;53.548;9.930;2022-11-18T06:37:29;22.48;;;15.90;;
10335;SDS011;5213;53.548;9.930;2022-11-18T06:39:55;22.23;;;15.98;;
10335;SDS011;5213;53.548;9.930;2022-11-18T06:42:21;21.35;;;16.30;;
10335;SDS011;5213;53.548;9.930;2022-11-18T06:45:06;22.15;;;16.40;;
10335;SDS011;5213;53.548;9.930;2022-11-18T06:47:32;21.50;;;15.23;;
10335;SDS011;5213;53.548;9.930;2022-11-18T06:49:58;25.40;;;16.58;;
10335;SDS011;5213;53.548;9.930;2022-11-18T06:52:24;21.88;;;16.23;;
10335;SDS011;5213;53.548;9.930;2022-11-18T06:54:50;25.88;;;17.88;;
10335;SDS011;5213;53.548;9.930;2022-11-18T06:57:16;26.73;;;16.23;;
10335;SDS011;5213;53.548;9.930;2022-11-18T06:59:42;23.27;;;16.70;;
10335;SDS011;5213;53.548;9.930;2022-11-18T07:02:08;26.48;;;17.88;;
10335;SDS011;5213;53.548;9.930;2022-11-18T07:04:34;23.70;;;16.95;;
10335;SDS011;5213;53.548;9.930;2022-11-18T07:07:03;24.70;;;16.88;;
10335;SDS011;5213;53.548;9.930;2022-11-18T07:09:29;26.17;;;17.63;;
10335;SDS011;5213;53.548;9.930;2022-11-18T07:11:55;26.27;;;17.80;;
10335;SDS011;5213;53.548;9.930;2022-11-18T07:14:21;26.92;;;17.73;;
10335;SDS011;5213;53.548;9.930;2022-11-18T07:16:47;24.85;;;15.98;;
10335;SDS011;5213;53.548;9.930;2022-11-18T07:19:13;22.42;;;16.50;;
10335;SDS011;5213;53.548;9.930;2022-11-18T07:21:39;23.23;;;16.02;;
10335;SDS011;5213;53.548;9.930;2022-11-18T07:24:10;19.45;;;14.20;;
10335;SDS011;5213;53.548;9.930;2022-11-18T07:26:36;24.73;;;16.23;;
10335;SDS011;5213;53.548;9.930;2022-11-18T07:29:03;24.98;;;17.95;;
10335;SDS011;5213;53.548;9.930;2022-11-18T07:31:29;24.65;;;16.52;;
10335;SDS011;5213;53.548;9.930;2022-11-18T07:33:55;23.80;;;16.83;;
10335;SDS011;5213;53.548;9.930;2022-11-18T07:36:25;23.65;;;16.92;;
10335;SDS011;5213;53.548;9.930;2022-11-18T07:38:51;23.50;;;16.75;;
10335;SDS011;5213;53.548;9.930;2022-11-18T07:41:18;24.70;;;16.75;;
10335;SDS011;5213;53.548;9.930;2022-11-18T07:43:45;20.92;;;14.48;;
10335;SDS011;5213;53.548;9.930;2022-11-18T07:48:38;24.20;;;15.60;;
10335;SDS011;5213;53.548;9.930;2022-11-18T07:51:04;22.58;;;14.85;;
10335;SDS011;5213;53.548;9.930;2022-11-18T07:53:30;21.58;;;15.73;;
10335;SDS011;5213;53.548;9.930;2022-11-18T07:55:56;21.42;;;15.07;;
10335;SDS011;5213;53.548;9.930;2022-11-18T07:58:22;20.35;;;14.55;;
10335;SDS011;5213;53.548;9.930;2022-11-18T08:00:48;21.52;;;15.05;;
10335;SDS011;5213;53.548;9.930;2022-11-18T08:03:14;20.27;;;15.13;;
10335;SDS011;5213;53.548;9.930;2022-11-18T08:05:40;19.73;;;14.30;;
10335;SDS011;5213;53.548;9.930;2022-11-18T08:08:06;21.90;;;14.23;;
10335;SDS011;5213;53.548;9.930;2022-11-18T08:10:32;21.80;;;15.13;;
10335;SDS011;5213;53.548;9.930;2022-11-18T08:12:58;18.48;;;13.98;;
10335;SDS011;5213;53.548;9.930;2022-11-18T08:15:24;23.95;;;14.00;;
10335;SDS011;5213;53.548;9.930;2022-11-18T08:17:50;17.85;;;13.27;;
10335;SDS011;5213;53.548;9.930;2022-11-18T08:20:16;16.60;;;13.25;;
10335;SDS011;5213;53.548;9.930;2022-11-18T08:22:42;16.60;;;12.38;;
10335;SDS011;5213;53.548;9.930;2022-11-18T08:25:08;17.73;;;13.45;;
10335;SDS011;5213;53.548;9.930;2022-11-18T08:27:34;14.60;;;11.73;;
10335;SDS011;5213;53.548;9.930;2022-11-18T08:30:00;16.38;;;12.02;;
10335;SDS011;5213;53.548;9.930;2022-11-18T08:32:26;15.00;;;12.13;;
10335;SDS011;5213;53.548;9.930;2022-11-18T08:34:52;16.55;;;12.30;;
10335;SDS011;5213;53.548;9.930;2022-11-18T08:37:18;15.98;;;12.50;;
10335;SDS011;5213;53.548;9.930;2022-11-18T08:39:44;16.27;;;12.55;;
10335;SDS011;5213;53.548;9.930;2022-11-18T08:42:10;16.48;;;12.65;;
10335;SDS011;5213;53.548;9.930;2022-11-18T08:44:36;15.13;;;12.27;;
10335;SDS011;5213;53.548;9.930;2022-11-18T08:47:02;19.23;;;12.88;;
10335;SDS011;5213;53.548;9.930;2022-11-18T08:49:28;15.80;;;12.13;;
10335;SDS011;5213;53.548;9.930;2022-11-18T08:51:54;14.52;;;12.13;;
10335;SDS011;5213;53.548;9.930;2022-11-18T08:54:20;15.43;;;11.98;;
10335;SDS011;5213;53.548;9.930;2022-11-18T08:56:46;15.80;;;11.38;;
10335;SDS011;5213;53.548;9.930;2022-11-18T08:59:14;15.18;;;12.40;;
10335;SDS011;5213;53.548;9.930;2022-11-18T09:01:40;14.30;;;11.45;;
10335;SDS011;5213;53.548;9.930;2022-11-18T09:04:07;13.73;;;11.18;;
10335;SDS011;5213;53.548;9.930;2022-11-18T09:06:33;16.88;;;11.95;;
10335;SDS011;5213;53.548;9.930;2022-11-18T09:08:59;14.15;;;11.05;;
10335;SDS011;5213;53.548;9.930;2022-11-18T09:11:26;14.07;;;12.27;;
10335;SDS011;5213;53.548;9.930;2022-11-18T09:13:56;14.40;;;11.30;;
10335;SDS011;5213;53.548;9.930;2022-11-18T09:16:27;15.15;;;11.68;;
10335;SDS011;5213;53.548;9.930;2022-11-18T09:18:54;16.83;;;12.63;;
10335;SDS011;5213;53.548;9.930;2022-11-18T09:21:21;13.80;;;11.77;;
10335;SDS011;5213;53.548;9.930;2022-11-18T09:23:47;14.40;;;11.88;;
10335;SDS011;5213;53.548;9.930;2022-11-18T09:26:14;15.30;;;11.80;;
10335;SDS011;5213;53.548;9.930;2022-11-18T09:28:41;14.43;;;11.45;;
10335;SDS011;5213;53.548;9.930;2022-11-18T09:31:09;14.98;;;11.63;;
10335;SDS011;5213;53.548;9.930;2022-11-18T09:33:35;14.77;;;12.23;;
10335;SDS011;5213;53.548;9.930;2022-11-18T09:36:02;13.77;;;11.40;;
10335;SDS011;5213;53.548;9.930;2022-11-18T09:38:28;13.88;;;11.68;;
10335;SDS011;5213;53.548;9.930;2022-11-18T09:46:25;14.80;;;11.48;;
10335;SDS011;5213;53.548;9.930;2022-11-18T09:48:56;13.52;;;11.35;;
10335;SDS011;5213;53.548;9.930;2022-11-18T09:51:46;13.00;;;11.05;;
10335;SDS011;5213;53.548;9.930;2022-11-18T09:54:16;14.68;;;11.05;;
10335;SDS011;5213;53.548;9.930;2022-11-18T09:56:44;13.75;;;10.90;;
10335;SDS011;5213;53.548;9.930;2022-11-18T09:59:11;12.25;;;10.05;;
10335;SDS011;5213;53.548;9.930;2022-11-18T10:01:38;14.23;;;10.80;;
10335;SDS011;5213;53.548;9.930;2022-11-18T10:04:05;12.70;;;9.25;;
10335;SDS011;5213;53.548;9.930;2022-11-18T10:06:36;12.70;;;10.25;;
10335;SDS011;5213;53.548;9.930;2022-11-18T10:20:26;12.05;;;10.13;;
10335;SDS011;5213;53.548;9.930;2022-11-18T10:22:35;10.70;;;8.30;;
10335;SDS011;5213;53.548;9.930;2022-11-18T10:25:06;13.65;;;9.68;;
10335;SDS011;5213;53.548;9.930;2022-11-18T10:27:42;12.45;;;9.65;;
10335;SDS011;5213;53.548;9.930;2022-11-18T10:37:58;10.57;;;8.75;;
10335;SDS011;5213;53.548;9.930;2022-11-18T10:40:26;9.63;;;8.60;;
10335;SDS011;5213;53.548;9.930;2022-11-18T10:42:53;11.93;;;8.50;;
10335;SDS011;5213;53.548;9.930;2022-11-18T10:47:58;9.32;;;7.93;;
10335;SDS011;5213;53.548;9.930;2022-11-18T10:50:27;9.38;;;8.32;;
10335;SDS011;5213;53.548;9.930;2022-11-18T10:52:53;9.15;;;7.90;;
10335;SDS011;5213;53.548;9.930;2022-11-18T10:55:20;8.82;;;7.88;;
10335;SDS011;5213;53.548;9.930;2022-11-18T10:57:47;9.20;;;7.80;;
10335;SDS011;5213;53.548;9.930;2022-11-18T11:00:33;8.57;;;7.57;;
10335;SDS011;5213;53.548;9.930;2022-11-18T11:03:00;8.13;;;6.78;;
10335;SDS011;5213;53.548;9.930;2022-11-18T11:05:26;8.65;;;7.18;;
10335;SDS011;5213;53.548;9.930;2022-11-18T11:08:03;8.52;;;6.90;;
10335;SDS011;5213;53.548;9.930;2022-11-18T11:10:29;8.52;;;6.40;;
10335;SDS011;5213;53.548;9.930;2022-11-18T11:12:59;7.22;;;6.53;;
10335;SDS011;5213;53.548;9.930;2022-11-18T11:15:28;7.13;;;6.18;;
10335;SDS011;5213;53.548;9.930;2022-11-18T11:17:57;8.23;;;6.80;;
10335;SDS011;5213;53.548;9.930;2022-11-18T11:20:43;6.13;;;5.53;;
10335;SDS011;5213;53.548;9.930;2022-11-18T11:23:09;8.30;;;6.35;;
10335;SDS011;5213;53.548;9.930;2022-11-18T11:28:24;7.47;;;6.53;;
10335;SDS011;5213;53.548;9.930;2022-11-18T11:31:08;7.13;;;6.13;;
10335;SDS011;5213;53.548;9.930;2022-11-18T11:41:14;9.18;;;6.68;;
10335;SDS011;5213;53.548;9.930;2022-11-18T11:46:18;7.13;;;6.38;;
10335;SDS011;5213;53.548;9.930;2022-11-18T11:48:55;7.72;;;6.28;;
10335;SDS011;5213;53.548;9.930;2022-11-18T11:51:26;6.88;;;5.72;;
10335;SDS011;5213;53.548;9.930;2022-11-18T11:56:39;7.82;;;6.03;;
10335;SDS011;5213;53.548;9.930;2022-11-18T11:59:16;7.95;;;6.20;;
10335;SDS011;5213;53.548;9.930;2022-11-18T12:04:43;6.38;;;5.72;;
10335;SDS011;5213;53.548;9.930;2022-11-18T12:07:02;7.28;;;6.15;;
10335;SDS011;5213;53.548;9.930;2022-11-18T12:16:51;6.88;;;6.05;;
10335;SDS011;5213;53.548;9.930;2022-11-18T12:19:19;10.23;;;6.53;;
10335;SDS011;5213;53.548;9.930;2022-11-18T12:24:31;7.53;;;6.00;;
10335;SDS011;5213;53.548;9.930;2022-11-18T12:29:30;8.15;;;6.05;;
10335;SDS011;5213;53.548;9.930;2022-11-18T12:31:58;9.15;;;6.30;;
10335;SDS011;5213;53.548;9.930;2022-11-18T12:34:39;7.32;;;5.72;;
10335;SDS011;5213;53.548;9.930;2022-11-18T12:39:58;6.95;;;5.95;;
10335;SDS011;5213;53.548;9.930;2022-11-18T12:45:45;9.38;;;6.30;;
10335;SDS011;5213;53.548;9.930;2022-11-18T12:53:30;8.48;;;6.28;;
10335;SDS011;5213;53.548;9.930;2022-11-18T12:55:57;6.93;;;5.60;;
10335;SDS011;5213;53.548;9.930;2022-11-18T12:58:24;7.20;;;5.80;;
10335;SDS011;5213;53.548;9.930;2022-11-18T13:01:02;7.43;;;5.68;;
10335;SDS011;5213;53.548;9.930;2022-11-18T13:03:30;7.35;;;6.07;;
10335;SDS011;5213;53.548;9.930;2022-11-18T13:05:57;7.85;;;5.82;;
10335;SDS011;5213;53.548;9.930;2022-11-18T13:08:25;7.53;;;5.60;;
10335;SDS011;5213;53.548;9.930;2022-11-18T13:10:53;8.75;;;5.25;;
10335;SDS011;5213;53.548;9.930;2022-11-18T13:13:40;6.88;;;5.47;;
10335;SDS011;5213;53.548;9.930;2022-11-18T13:16:16;5.78;;;5.00;;
10335;SDS011;5213;53.548;9.930;2022-11-18T13:19:01;7.30;;;5.40;;
10335;SDS011;5213;53.548;9.930;2022-11-18T13:21:27;6.80;;;5.25;;
10335;SDS011;5213;53.548;9.930;2022-11-18T13:24:19;10.40;;;5.40;;
10335;SDS011;5213;53.548;9.930;2022-11-18T13:26:46;7.45;;;5.63;;
10335;SDS011;5213;53.548;9.930;2022-11-18T13:36:43;5.50;;;4.60;;
10335;SDS011;5213;53.548;9.930;2022-11-18T13:41:46;6.63;;;4.97;;
10335;SDS011;5213;53.548;9.930;2022-11-18T13:44:23;6.20;;;4.53;;
10335;SDS011;5213;53.548;9.930;2022-11-18T13:46:52;4.95;;;4.28;;
10335;SDS011;5213;53.548;9.930;2022-11-18T13:49:27;6.90;;;4.97;;
10335;SDS011;5213;53.548;9.930;2022-11-18T13:51:56;4.90;;;4.40;;
10335;SDS011;5213;53.548;9.930;2022-11-18T13:54:23;5.45;;;4.65;;
10335;SDS011;5213;53.548;9.930;2022-11-18T13:56:50;5.43;;;4.35;;
10335;SDS011;5213;53.548;9.930;2022-11-18T13:59:17;5.05;;;4.35;;
10335;SDS011;5213;53.548;9.930;2022-11-18T14:01:45;6.15;;;4.28;;
10335;SDS011;5213;53.548;9.930;2022-11-18T14:04:21;4.88;;;4.05;;
10335;SDS011;5213;53.548;9.930;2022-11-18T14:06:48;8.98;;;3.67;;
10335;SDS011;5213;53.548;9.930;2022-11-18T14:12:00;4.22;;;3.60;;
10335;SDS011;5213;53.548;9.930;2022-11-18T14:14:28;5.07;;;4.03;;
10335;SDS011;5213;53.548;9.930;2022-11-18T14:16:57;3.42;;;3.13;;
10335;SDS011;5213;53.548;9.930;2022-11-18T14:19:28;6.60;;;3.55;;
10335;SDS011;5213;53.548;9.930;2022-11-18T14:22:01;3.42;;;3.03;;
10335;SDS011;5213;53.548;9.930;2022-11-18T14:24:27;4.47;;;3.50;;
10335;SDS011;5213;53.548;9.930;2022-11-18T14:26:53;6.20;;;3.75;;
10335;SDS011;5213;53.548;9.930;2022-11-18T14:29:20;6.32;;;3.55;;
10335;SDS011;5213;53.548;9.930;2022-11-18T14:34:31;4.43;;;3.53;;
10335;SDS011;5213;53.548;9.930;2022-11-18T14:36:57;6.70;;;3.75;;
10335;SDS011;5213;53.548;9.930;2022-11-18T14:41:50;6.28;;;3.75;;
10335;SDS011;5213;53.548;9.930;2022-11-18T14:44:16;3.63;;;3.33;;
10335;SDS011;5213;53.548;9.930;2022-11-18T14:46:43;3.67;;;3.35;;
10335;SDS011;5213;53.548;9.930;2022-11-18T14:49:11;3.97;;;3.50;;
10335;SDS011;5213;53.548;9.930;2022-11-18T14:51:38;4.40;;;3.92;;
10335;SDS011;5213;53.548;9.930;2022-11-18T14:54:04;3.97;;;3.53;;
10335;SDS011;5213;53.548;9.930;2022-11-18T14:56:30;3.60;;;3.30;;
10335;SDS011;5213;53.548;9.930;2022-11-18T14:58:57;5.00;;;3.63;;
10335;SDS011;5213;53.548;9.930;2022-11-18T15:01:23;4.97;;;3.67;;
10335;SDS011;5213;53.548;9.930;2022-11-18T15:03:50;4.70;;;3.78;;
10335;SDS011;5213;53.548;9.930;2022-11-18T15:06:16;4.63;;;3.40;;
10335;SDS011;5213;53.548;9.930;2022-11-18T15:08:44;6.53;;;3.50;;
10335;SDS011;5213;53.548;9.930;2022-11-18T15:11:10;5.20;;;3.72;;
10335;SDS011;5213;53.548;9.930;2022-11-18T15:13:37;5.18;;;3.67;;
10335;SDS011;5213;53.548;9.930;2022-11-18T15:16:20;3.60;;;3.30;;
10335;SDS011;5213;53.548;9.930;2022-11-18T15:18:46;4.25;;;3.42;;
10335;SDS011;5213;53.548;9.930;2022-11-18T15:21:13;4.20;;;3.40;;
10335;SDS011;5213;53.548;9.930;2022-11-18T15:23:39;3.97;;;3.40;;
10335;SDS011;5213;53.548;9.930;2022-11-18T15:26:50;4.60;;;3.80;;
10335;SDS011;5213;53.548;9.930;2022-11-18T15:28:52;3.75;;;2.92;;
10335;SDS011;5213;53.548;9.930;2022-11-18T15:31:18;3.78;;;3.30;;
10335;SDS011;5213;53.548;9.930;2022-11-18T15:33:44;4.10;;;3.15;;
10335;SDS011;5213;53.548;9.930;2022-11-18T15:36:15;3.15;;;2.80;;
10335;SDS011;5213;53.548;9.930;2022-11-18T15:38:42;4.03;;;3.40;;
10335;SDS011;5213;53.548;9.930;2022-11-18T15:41:16;3.42;;;3.00;;
10335;SDS011;5213;53.548;9.930;2022-11-18T15:43:42;3.53;;;3.17;;
10335;SDS011;5213;53.548;9.930;2022-11-18T15:46:08;3.70;;;3.30;;
10335;SDS011;5213;53.548;9.930;2022-11-18T15:48:34;3.35;;;2.90;;
10335;SDS011;5213;53.548;9.930;2022-11-18T15:51:00;3.15;;;2.85;;
10335;SDS011;5213;53.548;9.930;2022-11-18T15:53:26;4.88;;;2.90;;
10335;SDS011;5213;53.548;9.930;2022-11-18T15:56:12;4.78;;;3.50;;
10335;SDS011;5213;53.548;9.930;2022-11-18T15:58:38;3.80;;;3.40;;
10335;SDS011;5213;53.548;9.930;2022-11-18T16:01:04;3.92;;;3.00;;
10335;SDS011;5213;53.548;9.930;2022-11-18T16:03:30;3.40;;;3.10;;
10335;SDS011;5213;53.548;9.930;2022-11-18T16:05:55;3.17;;;2.88;;
10335;SDS011;5213;53.548;9.930;2022-11-18T16:08:21;2.95;;;2.70;;
10335;SDS011;5213;53.548;9.930;2022-11-18T16:10:47;3.17;;;2.63;;
10335;SDS011;5213;53.548;9.930;2022-11-18T16:13:38;3.50;;;2.50;;
10335;SDS011;5213;53.548;9.930;2022-11-18T16:16:04;4.28;;;2.78;;
10335;SDS011;5213;53.548;9.930;2022-11-18T16:18:30;3.65;;;2.90;;
10335;SDS011;5213;53.548;9.930;2022-11-18T16:20:59;3.00;;;2.67;;
10335;SDS011;5213;53.548;9.930;2022-11-18T16:23:25;2.95;;;2.60;;
10335;SDS011;5213;53.548;9.930;2022-11-18T16:25:54;3.95;;;2.90;;
10335;SDS011;5213;53.548;9.930;2022-11-18T16:28:20;3.78;;;3.13;;
10335;SDS011;5213;53.548;9.930;2022-11-18T16:30:47;4.22;;;3.13;;
10335;SDS011;5213;53.548;9.930;2022-11-18T16:33:32;3.65;;;2.90;;
10335;SDS011;5213;53.548;9.930;2022-11-18T16:35:58;3.60;;;2.85;;
10335;SDS011;5213;53.548;9.930;2022-11-18T16:38:24;2.80;;;2.50;;
10335;SDS011;5213;53.548;9.930;2022-11-18T16:40:53;3.50;;;2.85;;
10335;SDS011;5213;53.548;9.930;2022-11-18T16:43:20;4.53;;;3.13;;